createdAt,value
2023-03-21T00:00:44.681Z,7.70
2023-03-21T00:03:11.855Z,7.87
2023-03-21T00:05:49.658Z,8.00
2023-03-21T00:08:16.794Z,7.90
2023-03-21T00:10:44.771Z,8.10
2023-03-21T00:13:14.694Z,7.30
2023-03-21T00:16:09.338Z,7.07
2023-03-21T00:18:52.408Z,7.53
2023-03-21T00:21:40.919Z,7.03
2023-03-21T00:24:09.784Z,7.20
2023-03-21T00:26:38.068Z,7.20
2023-03-21T00:29:05.685Z,6.87
2023-03-21T00:31:32.743Z,7.63
2023-03-21T00:34:00.771Z,7.23
2023-03-21T00:36:28.531Z,7.40
2023-03-21T00:38:55.707Z,6.60
2023-03-21T00:41:39.121Z,6.47
2023-03-21T00:44:08.809Z,7.00
2023-03-21T00:46:45.526Z,6.57
2023-03-21T00:49:20.852Z,6.50
2023-03-21T00:51:51.771Z,6.17
2023-03-21T00:54:19.572Z,6.77
2023-03-21T00:56:46.676Z,6.80
2023-03-21T00:59:13.997Z,6.33
2023-03-21T01:01:41.321Z,6.73
2023-03-21T01:04:13.590Z,7.20
2023-03-21T01:06:43.950Z,6.50
2023-03-21T01:09:19.518Z,6.67
2023-03-21T01:11:47.373Z,7.07
2023-03-21T01:14:24.739Z,7.03
2023-03-21T01:16:53.700Z,6.77
2023-03-21T01:19:41.021Z,6.47
2023-03-21T01:22:12.526Z,7.17
2023-03-21T01:24:50.216Z,6.77
2023-03-21T01:27:20.174Z,6.60
2023-03-21T01:29:47.372Z,7.13
2023-03-21T01:32:14.504Z,7.20
2023-03-21T01:34:41.666Z,7.13
2023-03-21T01:37:08.778Z,7.53
2023-03-21T01:39:35.943Z,7.97
2023-03-21T01:42:03.107Z,7.17
2023-03-21T01:44:30.771Z,7.60
2023-03-21T01:47:13.386Z,7.10
2023-03-21T01:49:45.942Z,8.60
2023-03-21T01:52:36.606Z,7.57
2023-03-21T01:55:12.030Z,7.60
2023-03-21T01:58:03.927Z,7.80
2023-03-21T02:00:33.322Z,7.37
2023-03-21T02:03:15.209Z,7.33
2023-03-21T02:06:03.193Z,7.77
2023-03-21T02:08:39.548Z,8.63
2023-03-21T02:11:12.287Z,8.90
2023-03-21T02:13:40.618Z,10.97
2023-03-21T02:16:52.265Z,10.80
2023-03-21T02:19:55.958Z,11.27
2023-03-21T02:23:00.131Z,11.53
2023-03-21T02:26:42.283Z,11.10
2023-03-21T02:29:46.443Z,11.37
2023-03-21T02:33:23.559Z,10.67
2023-03-21T02:36:25.597Z,12.67
2023-03-21T02:38:56.238Z,11.87
2023-03-21T02:41:48.601Z,11.90
2023-03-21T02:44:56.192Z,11.27
2023-03-21T02:47:52.684Z,12.67
2023-03-21T02:50:29.942Z,11.67
2023-03-21T02:52:58.802Z,12.53
2023-03-21T02:55:31.035Z,13.10
2023-03-21T02:58:11.755Z,13.97
2023-03-21T03:00:40.539Z,13.60
2023-03-21T03:03:11.395Z,12.70
2023-03-21T03:05:52.200Z,13.30
2023-03-21T03:09:03.268Z,14.77
2023-03-21T03:12:12.468Z,15.10
2023-03-21T03:15:05.784Z,14.30
2023-03-21T03:17:46.437Z,15.70
2023-03-21T03:20:51.259Z,16.03
2023-03-21T03:23:42.249Z,16.50
2023-03-21T03:26:47.836Z,16.47
2023-03-21T03:29:20.812Z,18.43
2023-03-21T03:32:09.418Z,18.90
2023-03-21T03:34:44.002Z,19.63
2023-03-21T03:37:17.638Z,19.80
2023-03-21T03:39:57.964Z,20.57
2023-03-21T03:42:34.572Z,22.20
2023-03-21T03:45:05.558Z,21.40
2023-03-21T03:48:15.781Z,21.83
2023-03-21T03:50:54.062Z,23.60
2023-03-21T03:53:37.045Z,24.03
2023-03-21T03:56:08.290Z,23.90
2023-03-21T03:58:45.308Z,24.07
2023-03-21T04:01:14.125Z,25.67
2023-03-21T04:03:50.616Z,26.00
2023-03-21T04:06:22.038Z,26.03
2023-03-21T04:08:50.933Z,25.63
2023-03-21T04:11:18.117Z,25.80
2023-03-21T04:13:45.374Z,26.53
2023-03-21T04:16:13.018Z,25.97
2023-03-21T04:18:41.923Z,26.33
2023-03-21T04:21:13.911Z,25.60
2023-03-21T04:23:43.120Z,26.23
2023-03-21T04:26:10.965Z,24.67
2023-03-21T04:28:39.776Z,27.20
2023-03-21T04:31:22.671Z,26.17
2023-03-21T04:33:52.008Z,26.67
2023-03-21T04:36:27.515Z,28.07
2023-03-21T04:38:57.326Z,27.47
2023-03-21T04:41:26.200Z,26.93
2023-03-21T04:43:54.373Z,28.20
2023-03-21T04:46:21.925Z,27.07
2023-03-21T04:48:49.515Z,27.70
2023-03-21T04:51:17.568Z,28.73
2023-03-21T04:53:45.915Z,29.47
2023-03-21T04:56:13.127Z,29.33
2023-03-21T04:58:43.167Z,30.27
2023-03-21T05:01:10.522Z,29.47
2023-03-21T05:03:40.335Z,29.23
2023-03-21T05:06:10.334Z,29.77
2023-03-21T05:08:41.821Z,27.30
2023-03-21T05:11:09.036Z,30.57
2023-03-21T05:13:36.395Z,29.87
2023-03-21T05:16:03.755Z,31.10
2023-03-21T05:18:34.854Z,28.80
2023-03-21T05:21:04.224Z,30.10
2023-03-21T05:23:31.634Z,29.63
2023-03-21T05:25:58.722Z,29.40
2023-03-21T05:28:31.421Z,31.33
2023-03-21T05:30:58.686Z,28.83
2023-03-21T05:33:26.301Z,29.33
2023-03-21T05:35:56.021Z,30.47
2023-03-21T05:38:26.564Z,29.87
2023-03-21T05:40:55.041Z,29.60
2023-03-21T05:43:22.487Z,27.53
2023-03-21T05:45:50.208Z,28.10
2023-03-21T05:48:17.802Z,29.03
2023-03-21T05:50:45.869Z,27.40
2023-03-21T05:53:13.162Z,28.07
2023-03-21T05:55:40.484Z,26.50
2023-03-21T05:58:07.667Z,26.80
2023-03-21T06:00:36.770Z,27.00
2023-03-21T06:03:04.058Z,26.03
2023-03-21T06:05:34.629Z,25.47
2023-03-21T06:08:04.194Z,27.80
2023-03-21T06:10:31.652Z,26.83
2023-03-21T06:13:00.024Z,27.40
2023-03-21T06:15:27.351Z,26.00
2023-03-21T06:17:54.429Z,27.17
2023-03-21T06:20:21.857Z,27.97
2023-03-21T06:22:49.153Z,25.73
2023-03-21T06:25:17.732Z,27.70
2023-03-21T06:27:45.102Z,25.37
2023-03-21T06:30:13.640Z,26.27
2023-03-21T06:32:42.136Z,27.27
2023-03-21T06:35:09.729Z,26.27
2023-03-21T06:37:36.812Z,26.77
2023-03-21T06:40:08.004Z,26.53
2023-03-21T06:42:35.565Z,29.37
2023-03-21T06:45:05.879Z,28.50
2023-03-21T06:47:34.214Z,26.93
2023-03-21T06:50:01.311Z,27.47
2023-03-21T06:52:28.378Z,28.97
2023-03-21T06:54:55.460Z,28.57
2023-03-21T06:57:22.556Z,27.17
2023-03-21T06:59:49.602Z,27.30
2023-03-21T07:02:16.813Z,27.23
2023-03-21T07:04:43.949Z,28.10
2023-03-21T07:07:11.034Z,29.03
2023-03-21T07:09:40.503Z,27.87
2023-03-21T07:12:07.661Z,27.60
2023-03-21T07:14:37.080Z,27.60
2023-03-21T07:17:04.451Z,28.00
2023-03-21T07:19:31.918Z,29.07
2023-03-21T07:22:01.432Z,28.53
2023-03-21T07:24:28.485Z,27.47
2023-03-21T07:26:56.135Z,28.67
2023-03-21T07:29:23.407Z,29.10
2023-03-21T07:31:50.486Z,26.20
2023-03-21T07:34:18.816Z,27.00
2023-03-21T07:36:48.759Z,29.10
2023-03-21T07:39:17.592Z,29.37
2023-03-21T07:41:44.873Z,28.40
2023-03-21T07:44:12.079Z,29.13
2023-03-21T07:46:41.457Z,29.03
2023-03-21T07:49:08.950Z,30.80
2023-03-21T07:51:37.233Z,28.93
2023-03-21T07:54:04.773Z,29.53
2023-03-21T07:56:31.855Z,29.47
2023-03-21T07:58:59.412Z,29.73
2023-03-21T08:01:26.897Z,27.80
2023-03-21T08:03:54.083Z,31.00
2023-03-21T08:06:21.645Z,29.77
2023-03-21T08:08:48.956Z,29.50
2023-03-21T08:11:16.009Z,29.00
2023-03-21T08:13:43.155Z,29.07
2023-03-21T08:16:10.383Z,28.87
2023-03-21T08:18:37.630Z,29.50
2023-03-21T08:21:05.067Z,28.70
2023-03-21T08:23:32.425Z,29.87
2023-03-21T08:25:59.522Z,29.00
2023-03-21T08:28:27.232Z,29.10
2023-03-21T08:30:56.063Z,29.73
2023-03-21T08:33:23.985Z,28.70
2023-03-21T08:35:51.336Z,28.67
2023-03-21T08:38:18.441Z,29.53
2023-03-21T08:40:45.765Z,27.27
2023-03-21T08:43:14.841Z,28.73
2023-03-21T08:45:42.185Z,29.10
2023-03-21T08:48:09.328Z,27.40
2023-03-21T08:50:36.507Z,28.37
2023-03-21T08:53:03.587Z,28.53
2023-03-21T08:55:33.241Z,28.67
2023-03-21T08:58:00.907Z,27.33
2023-03-21T09:00:28.869Z,28.33
2023-03-21T09:02:58.674Z,28.70
2023-03-21T09:05:27.112Z,29.50
2023-03-21T09:07:54.593Z,29.30
2023-03-21T09:10:24.212Z,28.63
2023-03-21T09:12:55.584Z,26.10
2023-03-21T09:15:29.699Z,26.27
2023-03-21T09:17:58.556Z,25.83
2023-03-21T09:20:31.181Z,26.07
2023-03-21T09:22:59.702Z,26.27
2023-03-21T09:25:31.812Z,26.63
2023-03-21T09:28:00.993Z,26.90
2023-03-21T09:30:29.325Z,27.53
2023-03-21T09:32:56.948Z,25.60
2023-03-21T09:35:24.825Z,27.20
2023-03-21T09:37:52.498Z,26.13
2023-03-21T09:41:16.696Z,25.07
2023-03-21T09:44:11.475Z,25.53
2023-03-21T09:47:02.976Z,24.40
2023-03-21T09:49:42.133Z,24.03
2023-03-21T09:52:29.665Z,23.53
2023-03-21T09:54:57.069Z,22.93
2023-03-21T09:57:43.738Z,22.17
2023-03-21T10:00:27.324Z,21.00
2023-03-21T10:02:59.836Z,20.20
2023-03-21T10:05:32.785Z,20.97
2023-03-21T10:08:25.090Z,19.00
2023-03-21T10:11:18.811Z,19.43
2023-03-21T10:14:07.608Z,18.80
2023-03-21T10:16:53.622Z,19.87
2023-03-21T10:19:21.184Z,17.93
2023-03-21T10:22:01.685Z,18.80
2023-03-21T10:24:34.608Z,17.30
2023-03-21T10:27:04.475Z,18.07
2023-03-21T10:29:45.612Z,18.57
2023-03-21T10:32:17.137Z,19.23
2023-03-21T10:37:24.736Z,19.23
2023-03-21T10:39:55.188Z,18.77
2023-03-21T10:42:31.436Z,19.67
2023-03-21T10:44:59.201Z,19.40
2023-03-21T10:47:34.103Z,20.53
2023-03-21T10:50:13.726Z,20.60
2023-03-21T10:53:00.383Z,19.40
2023-03-21T10:55:33.976Z,19.73
2023-03-21T10:58:10.722Z,17.57
2023-03-21T11:00:43.394Z,17.97
2023-03-21T11:03:28.892Z,19.10
2023-03-21T11:06:06.960Z,19.77
2023-03-21T11:08:51.272Z,19.37
2023-03-21T11:11:29.234Z,19.40
2023-03-21T11:14:08.817Z,20.07
2023-03-21T11:16:44.214Z,20.10
2023-03-21T11:19:20.344Z,20.43
2023-03-21T11:21:47.702Z,19.10
2023-03-21T11:24:19.863Z,21.33
2023-03-21T11:26:50.752Z,20.43
2023-03-21T11:29:38.817Z,20.90
2023-03-21T11:32:34.946Z,20.20
2023-03-21T11:35:21.670Z,21.30
2023-03-21T11:37:57.068Z,22.33
2023-03-21T11:40:31.594Z,20.67
2023-03-21T11:43:25.712Z,24.07
2023-03-21T11:46:12.727Z,22.83
2023-03-21T11:48:48.744Z,20.97
2023-03-21T11:51:57.222Z,20.43
2023-03-21T11:54:57.162Z,20.83
2023-03-21T11:58:05.332Z,19.53
2023-03-21T12:01:24.229Z,20.00
2023-03-21T12:04:46.886Z,19.33
2023-03-21T12:07:41.480Z,19.53
2023-03-21T12:10:36.276Z,18.53
2023-03-21T12:13:40.333Z,17.30
2023-03-21T12:16:58.017Z,18.03
2023-03-21T12:19:59.717Z,16.97
2023-03-21T12:23:06.429Z,17.60
2023-03-21T12:26:18.334Z,15.33
2023-03-21T12:29:33.676Z,15.63
2023-03-21T12:32:29.613Z,18.07
2023-03-21T12:35:20.438Z,16.27
2023-03-21T12:38:26.090Z,15.60
2023-03-21T12:41:20.911Z,16.37
2023-03-21T12:44:01.542Z,15.53
2023-03-21T12:46:55.802Z,15.40
2023-03-21T12:49:57.741Z,14.50
2023-03-21T12:52:44.475Z,15.97
2023-03-21T12:55:34.742Z,15.83
2023-03-21T12:58:18.245Z,16.67
2023-03-21T13:00:56.203Z,17.87
2023-03-21T13:04:07.086Z,16.10
2023-03-21T13:06:36.741Z,16.37
2023-03-21T13:09:28.490Z,16.13
2023-03-21T13:12:07.762Z,15.20
2023-03-21T13:14:47.661Z,15.60
2023-03-21T13:17:37.332Z,15.20
2023-03-21T13:20:51.773Z,14.63
2023-03-21T13:23:23.653Z,15.37
2023-03-21T13:25:55.350Z,15.93
2023-03-21T13:28:34.448Z,15.63
2023-03-21T13:31:18.371Z,15.10
2023-03-21T13:33:53.598Z,15.80
2023-03-21T13:36:32.080Z,15.50
2023-03-21T13:39:06.069Z,15.70
2023-03-21T13:41:39.112Z,15.73
2023-03-21T13:44:22.795Z,16.03
2023-03-21T13:47:06.701Z,16.87
2023-03-21T13:49:38.445Z,15.73
2023-03-21T13:52:14.010Z,16.17
2023-03-21T13:54:56.154Z,16.20
2023-03-21T13:57:47.072Z,17.40
2023-03-21T14:00:24.199Z,18.37
2023-03-21T14:03:13.329Z,16.63
2023-03-21T14:05:41.704Z,17.07
2023-03-21T14:08:24.857Z,17.40
2023-03-21T14:11:04.139Z,15.93
2023-03-21T14:13:35.068Z,17.53
2023-03-21T14:16:15.466Z,17.63
2023-03-21T14:19:11.881Z,16.73
2023-03-21T14:21:51.551Z,16.97
2023-03-21T14:24:20.929Z,16.10
2023-03-21T14:26:54.060Z,15.77
2023-03-21T14:29:31.650Z,15.80
2023-03-21T14:32:00.984Z,14.80
2023-03-21T14:34:33.343Z,16.03
2023-03-21T14:37:00.615Z,15.67
2023-03-21T14:39:33.732Z,14.93
2023-03-21T14:42:14.075Z,14.87
2023-03-21T14:44:55.259Z,13.67
2023-03-21T14:47:32.257Z,12.27
2023-03-21T14:50:02.045Z,11.77
2023-03-21T14:52:34.626Z,12.10
2023-03-21T14:55:13.667Z,12.80
2023-03-21T14:57:40.801Z,12.70
2023-03-21T15:00:20.838Z,12.73
2023-03-21T15:02:48.085Z,11.87
2023-03-21T15:05:33.356Z,13.17
2023-03-21T15:08:20.888Z,12.27
2023-03-21T15:11:13.589Z,12.50
2023-03-21T15:13:54.860Z,12.00
2023-03-21T15:16:23.097Z,11.83
2023-03-21T15:18:51.443Z,11.73
2023-03-21T15:21:35.009Z,10.33
2023-03-21T15:24:18.335Z,10.77
2023-03-21T15:26:49.347Z,10.30
2023-03-21T15:29:18.384Z,10.13
2023-03-21T15:31:48.369Z,10.17
2023-03-21T15:34:27.771Z,10.37
2023-03-21T15:37:17.139Z,9.67
2023-03-21T15:39:45.188Z,10.87
2023-03-21T15:42:38.656Z,9.80
2023-03-21T15:45:26.552Z,9.30
2023-03-21T15:48:08.114Z,9.20
2023-03-21T15:50:52.283Z,9.10
2023-03-21T15:53:20.220Z,8.97
2023-03-21T15:56:02.775Z,9.20
2023-03-21T15:58:44.671Z,8.97
2023-03-21T16:01:22.163Z,8.80
2023-03-21T16:04:08.321Z,8.63
2023-03-21T16:07:00.444Z,8.80
2023-03-21T16:09:37.939Z,8.40
2023-03-21T16:12:13.813Z,8.20
2023-03-21T16:14:47.236Z,8.27
2023-03-21T16:17:33.230Z,8.30
2023-03-21T16:20:01.239Z,8.37
2023-03-21T16:22:30.064Z,7.93
2023-03-21T16:24:57.143Z,8.20
2023-03-21T16:27:24.340Z,8.30
2023-03-21T16:29:51.455Z,8.20
2023-03-21T16:32:20.488Z,8.53
2023-03-21T16:34:48.309Z,8.13
2023-03-21T16:37:18.695Z,7.93
2023-03-21T16:39:47.383Z,7.97
2023-03-21T16:42:14.521Z,8.10
2023-03-21T16:44:41.542Z,8.40
2023-03-21T16:47:25.404Z,8.47
2023-03-21T16:49:52.607Z,8.90
2023-03-21T16:52:19.674Z,7.97
2023-03-21T16:54:46.741Z,8.37
2023-03-21T16:57:30.160Z,8.23
2023-03-21T16:59:57.620Z,8.10
2023-03-21T17:02:26.174Z,9.03
2023-03-21T17:04:53.396Z,8.37
2023-03-21T17:07:20.812Z,9.43
2023-03-21T17:09:48.020Z,8.73
2023-03-21T17:12:17.658Z,9.97
2023-03-21T17:14:45.687Z,10.17
2023-03-21T17:17:16.822Z,10.20
2023-03-21T17:19:44.405Z,10.50
2023-03-21T17:22:14.076Z,10.60
2023-03-21T17:24:41.656Z,10.87
2023-03-21T17:27:13.341Z,11.23
2023-03-21T17:29:40.516Z,11.20
2023-03-21T17:32:07.710Z,10.93
2023-03-21T17:34:34.767Z,11.87
2023-03-21T17:37:01.864Z,11.13
2023-03-21T17:39:29.029Z,11.87
2023-03-21T17:41:56.843Z,12.43
2023-03-21T17:44:24.105Z,11.03
2023-03-21T17:46:52.498Z,12.00
2023-03-21T17:49:21.030Z,13.17
2023-03-21T17:51:48.173Z,13.67
2023-03-21T17:54:15.342Z,14.07
2023-03-21T17:56:42.868Z,14.53
2023-03-21T17:59:14.354Z,13.00
2023-03-21T18:01:42.591Z,15.07
2023-03-21T18:04:10.876Z,14.50
2023-03-21T18:06:38.318Z,15.00
2023-03-21T18:09:10.973Z,15.33
2023-03-21T18:11:39.712Z,15.83
2023-03-21T18:14:15.937Z,16.90
2023-03-21T18:16:44.385Z,17.87
2023-03-21T18:19:15.231Z,15.37
2023-03-21T18:21:44.878Z,15.63
2023-03-21T18:24:12.632Z,15.10
2023-03-21T18:26:39.772Z,16.83
2023-03-21T18:30:13.083Z,14.57
2023-03-21T18:32:05.431Z,15.70
2023-03-21T18:34:34.251Z,14.93
2023-03-21T18:37:03.902Z,13.80
2023-03-21T18:39:33.825Z,14.80
2023-03-21T18:42:02.609Z,15.17
2023-03-21T18:44:37.246Z,15.60
2023-03-21T18:47:08.505Z,15.33
2023-03-21T18:50:10.456Z,14.50
2023-03-21T18:52:23.470Z,15.37
2023-03-21T18:54:50.755Z,15.20
2023-03-21T18:57:35.811Z,16.77
2023-03-21T19:00:16.806Z,17.40
2023-03-21T19:02:48.399Z,16.60
2023-03-21T19:05:20.317Z,16.97
2023-03-21T19:07:48.365Z,17.47
2023-03-21T19:10:20.346Z,18.43
2023-03-21T19:12:50.680Z,17.63
2023-03-21T19:15:21.496Z,16.80
2023-03-21T19:18:37.084Z,17.87
2023-03-21T19:20:46.417Z,18.03
2023-03-21T19:23:13.776Z,16.70
2023-03-21T19:25:44.711Z,17.60
2023-03-21T19:28:11.822Z,17.63
2023-03-21T19:30:40.256Z,16.50
2023-03-21T19:33:11.375Z,17.17
2023-03-21T19:35:41.238Z,17.50
2023-03-21T19:38:08.549Z,17.63
2023-03-21T19:40:36.138Z,17.43
2023-03-21T19:43:21.531Z,16.07
2023-03-21T19:45:50.472Z,15.70
2023-03-21T19:48:17.592Z,17.30
2023-03-21T19:51:20.091Z,18.13
2023-03-21T19:53:33.527Z,18.53
2023-03-21T19:56:03.718Z,19.30
2023-03-21T19:58:31.309Z,19.30
2023-03-21T20:00:59.071Z,20.50
2023-03-21T20:03:26.578Z,19.97
2023-03-21T20:06:08.127Z,20.07
2023-03-21T20:09:05.727Z,21.03
2023-03-21T20:11:23.962Z,20.47
2023-03-21T20:13:51.411Z,21.53
2023-03-21T20:16:20.366Z,22.17
2023-03-21T20:18:48.080Z,20.50
2023-03-21T20:21:18.002Z,23.07
2023-03-21T20:23:50.889Z,23.43
2023-03-21T20:26:18.592Z,23.40
2023-03-21T20:28:56.605Z,23.80
2023-03-21T20:31:34.598Z,23.83
2023-03-21T20:34:01.667Z,24.63
2023-03-21T20:36:39.358Z,24.53
2023-03-21T20:39:09.529Z,26.30
2023-03-21T20:41:37.125Z,25.73
2023-03-21T20:46:54.154Z,25.67
2023-03-21T20:49:24.162Z,26.10
2023-03-21T20:54:38.882Z,26.73
2023-03-21T20:57:05.964Z,27.87
2023-03-21T20:59:33.600Z,28.53
2023-03-21T21:02:00.753Z,27.43
2023-03-21T21:04:48.317Z,30.37
2023-03-21T21:07:21.324Z,32.53
2023-03-21T21:09:49.951Z,32.50
2023-03-21T21:12:19.281Z,36.10
2023-03-21T21:14:47.792Z,40.03
2023-03-21T21:20:31.394Z,34.77
2023-03-21T21:23:00.526Z,27.67
2023-03-21T21:25:31.791Z,34.73
2023-03-21T21:27:58.995Z,36.97
2023-03-21T21:30:26.117Z,37.57
2023-03-21T21:32:53.982Z,31.37
2023-03-21T21:35:22.736Z,25.40
2023-03-21T21:37:52.428Z,39.63
2023-03-21T21:40:23.038Z,42.30
2023-03-21T21:42:50.290Z,42.53
2023-03-21T21:45:18.881Z,34.23
2023-03-21T21:47:46.487Z,32.83
2023-03-21T21:50:14.267Z,35.13
2023-03-21T21:52:43.554Z,35.87
2023-03-21T21:55:13.100Z,27.23
2023-03-21T21:57:40.886Z,34.73
2023-03-21T22:00:13.423Z,31.37
2023-03-21T22:02:41.617Z,31.73
2023-03-21T22:05:10.456Z,32.83
2023-03-21T22:07:38.011Z,30.37
2023-03-21T22:10:06.604Z,34.20
2023-03-21T22:12:34.210Z,41.77
2023-03-21T22:15:01.450Z,34.37
2023-03-21T22:17:28.602Z,36.50
2023-03-21T22:20:05.253Z,41.63
2023-03-21T22:22:34.799Z,36.90
2023-03-21T22:25:03.578Z,41.43
2023-03-21T22:27:31.120Z,42.40
2023-03-21T22:30:04.339Z,42.20
2023-03-21T22:32:37.111Z,40.33
2023-03-21T22:35:06.910Z,40.13
2023-03-21T22:37:38.389Z,39.87
2023-03-21T22:40:10.385Z,42.93
2023-03-21T22:42:39.575Z,43.63
2023-03-21T22:45:13.433Z,40.40
2023-03-21T22:47:40.945Z,45.47
2023-03-21T22:50:09.386Z,42.07
2023-03-21T22:52:36.520Z,41.87
2023-03-21T22:55:03.865Z,38.37
2023-03-21T22:57:31.058Z,38.70
2023-03-21T22:59:58.220Z,49.93
2023-03-21T23:02:25.509Z,42.97
2023-03-21T23:04:52.597Z,40.07
2023-03-21T23:07:19.738Z,43.23
2023-03-21T23:09:46.835Z,45.40
2023-03-21T23:12:14.706Z,40.23
2023-03-21T23:14:41.845Z,41.27
2023-03-21T23:17:10.103Z,38.47
2023-03-21T23:19:38.699Z,40.10
2023-03-21T23:22:07.726Z,40.07
2023-03-21T23:24:35.098Z,39.90
2023-03-21T23:27:02.619Z,38.67
2023-03-21T23:29:29.820Z,32.47
2023-03-21T23:31:56.850Z,37.03
2023-03-21T23:34:24.076Z,32.10
2023-03-21T23:36:51.476Z,35.53
2023-03-21T23:39:20.093Z,31.90
2023-03-21T23:41:47.211Z,34.60
2023-03-21T23:44:15.326Z,27.67
2023-03-21T23:46:42.393Z,27.73
2023-03-21T23:49:10.104Z,29.53
2023-03-21T23:51:37.133Z,28.50
2023-03-21T23:54:04.263Z,30.10
2023-03-21T23:56:32.294Z,28.60
2023-03-21T23:58:59.837Z,26.07
